sensor_id;sensor_type;location;lat;lon;timestamp;temperature;humidity
13426;DHT22;6785;57.918;12.530;2023-03-11T00:01:09;-3.80;99.90
13426;DHT22;6785;57.918;12.530;2023-03-11T00:03:37;-3.80;99.90
13426;DHT22;6785;57.918;12.530;2023-03-11T00:06:04;-3.80;99.90
13426;DHT22;6785;57.918;12.530;2023-03-11T00:08:31;-3.80;99.90
13426;DHT22;6785;57.918;12.530;2023-03-11T00:10:58;-3.70;99.90
13426;DHT22;6785;57.918;12.530;2023-03-11T00:13:27;-3.80;99.90
13426;DHT22;6785;57.918;12.530;2023-03-11T00:15:54;-3.80;99.90
13426;DHT22;6785;57.918;12.530;2023-03-11T00:18:21;-3.80;99.90
13426;DHT22;6785;57.918;12.530;2023-03-11T00:20:53;-3.90;99.90
13426;DHT22;6785;57.918;12.530;2023-03-11T00:23:20;-4.00;99.90
13426;DHT22;6785;57.918;12.530;2023-03-11T00:25:47;-4.00;99.90
13426;DHT22;6785;57.918;12.530;2023-03-11T00:28:14;-4.00;99.90
13426;DHT22;6785;57.918;12.530;2023-03-11T00:30:43;-4.00;99.90
13426;DHT22;6785;57.918;12.530;2023-03-11T00:33:12;-4.10;99.90
13426;DHT22;6785;57.918;12.530;2023-03-11T00:35:40;-4.10;99.90
13426;DHT22;6785;57.918;12.530;2023-03-11T00:38:11;-4.10;99.90
13426;DHT22;6785;57.918;12.530;2023-03-11T00:40:39;-4.00;99.90
13426;DHT22;6785;57.918;12.530;2023-03-11T00:43:06;-4.00;99.90
13426;DHT22;6785;57.918;12.530;2023-03-11T00:45:33;-3.90;99.90
13426;DHT22;6785;57.918;12.530;2023-03-11T00:47:59;-3.90;99.90
13426;DHT22;6785;57.918;12.530;2023-03-11T00:50:28;-4.00;99.90
13426;DHT22;6785;57.918;12.530;2023-03-11T00:52:56;-4.00;99.90
13426;DHT22;6785;57.918;12.530;2023-03-11T00:55:26;-4.00;99.90
13426;DHT22;6785;57.918;12.530;2023-03-11T00:57:55;-3.90;99.90
13426;DHT22;6785;57.918;12.530;2023-03-11T01:00:23;-3.90;99.90
13426;DHT22;6785;57.918;12.530;2023-03-11T01:02:51;-3.90;99.90
13426;DHT22;6785;57.918;12.530;2023-03-11T01:05:19;-3.90;99.90
13426;DHT22;6785;57.918;12.530;2023-03-11T01:07:47;-3.90;99.90
13426;DHT22;6785;57.918;12.530;2023-03-11T01:10:14;-3.90;99.90
13426;DHT22;6785;57.918;12.530;2023-03-11T01:12:42;-3.90;99.90
13426;DHT22;6785;57.918;12.530;2023-03-11T01:15:15;-3.80;99.90
13426;DHT22;6785;57.918;12.530;2023-03-11T01:17:43;-3.80;99.90
13426;DHT22;6785;57.918;12.530;2023-03-11T01:20:11;-3.80;99.90
13426;DHT22;6785;57.918;12.530;2023-03-11T01:22:38;-3.90;99.90
13426;DHT22;6785;57.918;12.530;2023-03-11T01:25:05;-3.90;99.90
13426;DHT22;6785;57.918;12.530;2023-03-11T01:27:32;-4.00;99.90
13426;DHT22;6785;57.918;12.530;2023-03-11T01:30:00;-4.00;99.90
13426;DHT22;6785;57.918;12.530;2023-03-11T01:32:27;-4.00;99.90
13426;DHT22;6785;57.918;12.530;2023-03-11T01:34:55;-4.00;99.90
13426;DHT22;6785;57.918;12.530;2023-03-11T01:37:21;-4.10;99.90
13426;DHT22;6785;57.918;12.530;2023-03-11T01:39:48;-4.10;99.90
13426;DHT22;6785;57.918;12.530;2023-03-11T01:42:15;-4.10;99.90
13426;DHT22;6785;57.918;12.530;2023-03-11T01:44:41;-4.10;99.90
13426;DHT22;6785;57.918;12.530;2023-03-11T01:47:35;-4.10;99.90
13426;DHT22;6785;57.918;12.530;2023-03-11T01:50:05;-4.10;99.90
13426;DHT22;6785;57.918;12.530;2023-03-11T01:52:33;-4.10;99.90
13426;DHT22;6785;57.918;12.530;2023-03-11T01:55:00;-4.20;99.90
13426;DHT22;6785;57.918;12.530;2023-03-11T01:57:27;-4.20;99.90
13426;DHT22;6785;57.918;12.530;2023-03-11T01:59:56;-4.20;99.90
13426;DHT22;6785;57.918;12.530;2023-03-11T02:02:29;-4.20;99.90
13426;DHT22;6785;57.918;12.530;2023-03-11T02:05:01;-4.20;99.90
13426;DHT22;6785;57.918;12.530;2023-03-11T02:07:28;-4.40;99.90
13426;DHT22;6785;57.918;12.530;2023-03-11T02:09:55;-4.50;99.90
13426;DHT22;6785;57.918;12.530;2023-03-11T02:12:22;-4.50;99.90
13426;DHT22;6785;57.918;12.530;2023-03-11T02:14:50;-4.50;99.90
13426;DHT22;6785;57.918;12.530;2023-03-11T02:17:19;-4.50;99.90
13426;DHT22;6785;57.918;12.530;2023-03-11T02:20:10;-4.50;99.90
13426;DHT22;6785;57.918;12.530;2023-03-11T02:22:39;-4.50;99.90
13426;DHT22;6785;57.918;12.530;2023-03-11T02:25:10;-4.50;99.90
13426;DHT22;6785;57.918;12.530;2023-03-11T02:27:42;-4.50;99.90
13426;DHT22;6785;57.918;12.530;2023-03-11T02:30:13;-4.50;99.90
13426;DHT22;6785;57.918;12.530;2023-03-11T02:32:42;-4.50;99.90
13426;DHT22;6785;57.918;12.530;2023-03-11T02:35:11;-4.50;99.90
13426;DHT22;6785;57.918;12.530;2023-03-11T02:37:43;-4.50;99.90
13426;DHT22;6785;57.918;12.530;2023-03-11T02:40:36;-4.50;99.90
13426;DHT22;6785;57.918;12.530;2023-03-11T02:43:06;-4.40;99.90
13426;DHT22;6785;57.918;12.530;2023-03-11T02:45:34;-4.50;99.90
13426;DHT22;6785;57.918;12.530;2023-03-11T02:48:02;-4.50;99.90
13426;DHT22;6785;57.918;12.530;2023-03-11T02:50:29;-4.50;99.90
13426;DHT22;6785;57.918;12.530;2023-03-11T02:52:59;-4.60;99.90
13426;DHT22;6785;57.918;12.530;2023-03-11T02:55:25;-4.50;99.90
13426;DHT22;6785;57.918;12.530;2023-03-11T02:57:52;-4.60;99.90
13426;DHT22;6785;57.918;12.530;2023-03-11T03:00:20;-4.60;99.90
13426;DHT22;6785;57.918;12.530;2023-03-11T03:02:47;-4.70;99.90
13426;DHT22;6785;57.918;12.530;2023-03-11T03:05:18;-4.60;99.90
13426;DHT22;6785;57.918;12.530;2023-03-11T03:07:45;-4.60;99.90
13426;DHT22;6785;57.918;12.530;2023-03-11T03:10:13;-4.60;99.90
13426;DHT22;6785;57.918;12.530;2023-03-11T03:12:40;-4.70;99.90
13426;DHT22;6785;57.918;12.530;2023-03-11T03:15:08;-4.60;99.90
13426;DHT22;6785;57.918;12.530;2023-03-11T03:17:37;-4.60;99.90
13426;DHT22;6785;57.918;12.530;2023-03-11T03:20:05;-4.60;99.90
13426;DHT22;6785;57.918;12.530;2023-03-11T03:22:36;-4.60;99.90
13426;DHT22;6785;57.918;12.530;2023-03-11T03:25:03;-4.60;99.90
13426;DHT22;6785;57.918;12.530;2023-03-11T03:27:30;-4.60;99.90
13426;DHT22;6785;57.918;12.530;2023-03-11T03:29:57;-4.50;99.90
13426;DHT22;6785;57.918;12.530;2023-03-11T03:32:24;-4.50;99.90
13426;DHT22;6785;57.918;12.530;2023-03-11T03:34:52;-4.50;99.90
13426;DHT22;6785;57.918;12.530;2023-03-11T03:37:22;-4.40;99.90
13426;DHT22;6785;57.918;12.530;2023-03-11T03:39:49;-4.40;99.90
13426;DHT22;6785;57.918;12.530;2023-03-11T03:42:16;-4.30;99.90
13426;DHT22;6785;57.918;12.530;2023-03-11T03:44:42;-4.20;99.90
13426;DHT22;6785;57.918;12.530;2023-03-11T03:47:10;-4.20;99.90
13426;DHT22;6785;57.918;12.530;2023-03-11T03:49:37;-4.10;99.90
13426;DHT22;6785;57.918;12.530;2023-03-11T03:52:06;-4.20;99.90
13426;DHT22;6785;57.918;12.530;2023-03-11T03:54:33;-4.20;99.90
13426;DHT22;6785;57.918;12.530;2023-03-11T03:57:00;-4.30;99.90
13426;DHT22;6785;57.918;12.530;2023-03-11T03:59:26;-4.40;99.90
13426;DHT22;6785;57.918;12.530;2023-03-11T04:01:53;-4.40;99.90
13426;DHT22;6785;57.918;12.530;2023-03-11T04:04:20;-4.50;99.90
13426;DHT22;6785;57.918;12.530;2023-03-11T04:06:47;-4.50;99.90
13426;DHT22;6785;57.918;12.530;2023-03-11T04:09:15;-4.60;99.90
13426;DHT22;6785;57.918;12.530;2023-03-11T04:11:42;-4.60;99.90
13426;DHT22;6785;57.918;12.530;2023-03-11T04:14:08;-4.60;99.90
13426;DHT22;6785;57.918;12.530;2023-03-11T04:16:35;-4.70;99.90
13426;DHT22;6785;57.918;12.530;2023-03-11T04:19:02;-4.80;99.90
13426;DHT22;6785;57.918;12.530;2023-03-11T04:21:30;-4.90;99.90
13426;DHT22;6785;57.918;12.530;2023-03-11T04:23:57;-5.00;99.90
13426;DHT22;6785;57.918;12.530;2023-03-11T04:26:27;-5.10;99.90
13426;DHT22;6785;57.918;12.530;2023-03-11T04:28:53;-5.30;99.90
13426;DHT22;6785;57.918;12.530;2023-03-11T04:31:20;-5.30;99.90
13426;DHT22;6785;57.918;12.530;2023-03-11T04:33:47;-5.30;99.90
13426;DHT22;6785;57.918;12.530;2023-03-11T04:36:14;-5.30;99.90
13426;DHT22;6785;57.918;12.530;2023-03-11T04:38:40;-5.40;99.90
13426;DHT22;6785;57.918;12.530;2023-03-11T04:41:07;-5.50;99.90
13426;DHT22;6785;57.918;12.530;2023-03-11T04:43:35;-5.60;99.90
13426;DHT22;6785;57.918;12.530;2023-03-11T04:46:02;-5.70;99.90
13426;DHT22;6785;57.918;12.530;2023-03-11T04:48:29;-5.80;99.90
13426;DHT22;6785;57.918;12.530;2023-03-11T04:50:56;-5.80;99.90
13426;DHT22;6785;57.918;12.530;2023-03-11T04:53:23;-5.90;99.90
13426;DHT22;6785;57.918;12.530;2023-03-11T04:55:50;-6.00;99.90
13426;DHT22;6785;57.918;12.530;2023-03-11T04:58:18;-6.20;99.90
13426;DHT22;6785;57.918;12.530;2023-03-11T05:00:46;-6.20;99.90
13426;DHT22;6785;57.918;12.530;2023-03-11T05:03:13;-6.30;99.90
13426;DHT22;6785;57.918;12.530;2023-03-11T05:05:40;-6.40;99.90
13426;DHT22;6785;57.918;12.530;2023-03-11T05:08:07;-6.50;99.90
13426;DHT22;6785;57.918;12.530;2023-03-11T05:10:33;-6.60;99.90
13426;DHT22;6785;57.918;12.530;2023-03-11T05:13:01;-6.60;99.90
13426;DHT22;6785;57.918;12.530;2023-03-11T05:15:28;-6.60;99.90
13426;DHT22;6785;57.918;12.530;2023-03-11T05:17:57;-6.70;99.90
13426;DHT22;6785;57.918;12.530;2023-03-11T05:20:24;-6.70;99.90
13426;DHT22;6785;57.918;12.530;2023-03-11T05:22:50;-6.80;99.90
13426;DHT22;6785;57.918;12.530;2023-03-11T05:25:17;-6.80;99.90
13426;DHT22;6785;57.918;12.530;2023-03-11T05:27:44;-7.00;99.90
13426;DHT22;6785;57.918;12.530;2023-03-11T05:30:11;-7.00;99.90
13426;DHT22;6785;57.918;12.530;2023-03-11T05:32:39;-7.10;99.90
13426;DHT22;6785;57.918;12.530;2023-03-11T05:35:08;-7.20;99.90
13426;DHT22;6785;57.918;12.530;2023-03-11T05:37:35;-7.30;99.90
13426;DHT22;6785;57.918;12.530;2023-03-11T05:40:04;-7.30;99.90
13426;DHT22;6785;57.918;12.530;2023-03-11T05:42:32;-7.40;99.90
13426;DHT22;6785;57.918;12.530;2023-03-11T05:44:59;-7.30;99.90
13426;DHT22;6785;57.918;12.530;2023-03-11T05:47:25;-7.40;99.90
13426;DHT22;6785;57.918;12.530;2023-03-11T05:49:52;-7.40;99.90
13426;DHT22;6785;57.918;12.530;2023-03-11T05:52:20;-7.40;99.90
13426;DHT22;6785;57.918;12.530;2023-03-11T05:54:48;-7.50;99.90
13426;DHT22;6785;57.918;12.530;2023-03-11T05:57:15;-7.50;99.90
13426;DHT22;6785;57.918;12.530;2023-03-11T05:59:42;-7.40;99.90
13426;DHT22;6785;57.918;12.530;2023-03-11T06:02:09;-7.50;99.90
13426;DHT22;6785;57.918;12.530;2023-03-11T06:04:35;-7.60;99.90
13426;DHT22;6785;57.918;12.530;2023-03-11T06:07:03;-7.60;99.90
13426;DHT22;6785;57.918;12.530;2023-03-11T06:09:31;-7.60;99.90
13426;DHT22;6785;57.918;12.530;2023-03-11T06:12:00;-7.60;99.90
13426;DHT22;6785;57.918;12.530;2023-03-11T06:14:26;-7.60;99.90
13426;DHT22;6785;57.918;12.530;2023-03-11T06:16:56;-7.60;99.90
13426;DHT22;6785;57.918;12.530;2023-03-11T06:19:23;-7.70;99.90
13426;DHT22;6785;57.918;12.530;2023-03-11T06:21:49;-7.70;99.90
13426;DHT22;6785;57.918;12.530;2023-03-11T06:24:16;-7.60;99.90
13426;DHT22;6785;57.918;12.530;2023-03-11T06:26:44;-7.60;99.90
13426;DHT22;6785;57.918;12.530;2023-03-11T06:29:12;-7.60;99.90
13426;DHT22;6785;57.918;12.530;2023-03-11T06:31:40;-7.60;99.90
13426;DHT22;6785;57.918;12.530;2023-03-11T06:34:08;-7.50;99.90
13426;DHT22;6785;57.918;12.530;2023-03-11T06:36:36;-7.50;99.90
13426;DHT22;6785;57.918;12.530;2023-03-11T06:39:03;-7.50;99.90
13426;DHT22;6785;57.918;12.530;2023-03-11T06:41:32;-7.50;99.90
13426;DHT22;6785;57.918;12.530;2023-03-11T06:44:00;-7.40;99.90
13426;DHT22;6785;57.918;12.530;2023-03-11T06:46:27;-7.20;99.90
13426;DHT22;6785;57.918;12.530;2023-03-11T06:48:54;-7.10;99.90
13426;DHT22;6785;57.918;12.530;2023-03-11T06:51:20;-6.90;99.90
13426;DHT22;6785;57.918;12.530;2023-03-11T06:53:48;-6.80;99.90
13426;DHT22;6785;57.918;12.530;2023-03-11T06:56:16;-6.70;99.90
13426;DHT22;6785;57.918;12.530;2023-03-11T06:58:43;-6.50;99.90
13426;DHT22;6785;57.918;12.530;2023-03-11T07:01:14;-6.40;99.90
13426;DHT22;6785;57.918;12.530;2023-03-11T07:03:41;-6.30;99.90
13426;DHT22;6785;57.918;12.530;2023-03-11T07:06:12;-6.20;99.90
13426;DHT22;6785;57.918;12.530;2023-03-11T07:08:39;-6.10;99.90
13426;DHT22;6785;57.918;12.530;2023-03-11T07:11:08;-5.90;99.90
13426;DHT22;6785;57.918;12.530;2023-03-11T07:13:36;-5.90;99.90
13426;DHT22;6785;57.918;12.530;2023-03-11T07:16:05;-5.80;99.90
13426;DHT22;6785;57.918;12.530;2023-03-11T07:18:34;-5.70;99.90
13426;DHT22;6785;57.918;12.530;2023-03-11T07:21:01;-5.70;99.90
13426;DHT22;6785;57.918;12.530;2023-03-11T07:23:28;-5.60;99.90
13426;DHT22;6785;57.918;12.530;2023-03-11T07:25:55;-5.50;99.90
13426;DHT22;6785;57.918;12.530;2023-03-11T07:28:22;-5.50;99.90
13426;DHT22;6785;57.918;12.530;2023-03-11T07:30:49;-5.40;99.90
13426;DHT22;6785;57.918;12.530;2023-03-11T07:33:16;-5.10;99.90
13426;DHT22;6785;57.918;12.530;2023-03-11T07:35:45;-4.80;99.90
13426;DHT22;6785;57.918;12.530;2023-03-11T07:38:13;-4.40;99.90
13426;DHT22;6785;57.918;12.530;2023-03-11T07:40:41;-4.00;99.90
13426;DHT22;6785;57.918;12.530;2023-03-11T07:43:07;-3.70;99.90
13426;DHT22;6785;57.918;12.530;2023-03-11T07:45:34;-3.40;99.90
13426;DHT22;6785;57.918;12.530;2023-03-11T07:48:01;-3.10;99.90
13426;DHT22;6785;57.918;12.530;2023-03-11T07:50:28;-2.80;99.90
13426;DHT22;6785;57.918;12.530;2023-03-11T07:52:56;-2.50;99.90
13426;DHT22;6785;57.918;12.530;2023-03-11T07:55:23;-2.10;99.90
13426;DHT22;6785;57.918;12.530;2023-03-11T07:57:49;-1.90;99.90
13426;DHT22;6785;57.918;12.530;2023-03-11T08:00:17;-1.80;99.90
13426;DHT22;6785;57.918;12.530;2023-03-11T08:02:44;-1.60;99.90
13426;DHT22;6785;57.918;12.530;2023-03-11T08:05:11;-1.40;99.90
13426;DHT22;6785;57.918;12.530;2023-03-11T08:07:38;-1.20;99.90
13426;DHT22;6785;57.918;12.530;2023-03-11T08:10:07;-1.10;99.90
13426;DHT22;6785;57.918;12.530;2023-03-11T08:12:34;-0.90;99.90
13426;DHT22;6785;57.918;12.530;2023-03-11T08:15:00;-0.70;99.90
13426;DHT22;6785;57.918;12.530;2023-03-11T08:17:27;-0.70;99.90
13426;DHT22;6785;57.918;12.530;2023-03-11T08:19:54;-0.70;99.90
13426;DHT22;6785;57.918;12.530;2023-03-11T08:22:21;-0.70;99.90
13426;DHT22;6785;57.918;12.530;2023-03-11T08:24:50;-0.70;99.90
13426;DHT22;6785;57.918;12.530;2023-03-11T08:27:19;-0.60;99.90
13426;DHT22;6785;57.918;12.530;2023-03-11T08:29:45;-0.60;99.90
13426;DHT22;6785;57.918;12.530;2023-03-11T08:32:12;-0.50;99.90
13426;DHT22;6785;57.918;12.530;2023-03-11T08:34:39;-0.50;99.90
13426;DHT22;6785;57.918;12.530;2023-03-11T08:37:06;-0.40;99.90
13426;DHT22;6785;57.918;12.530;2023-03-11T08:39:32;-0.30;99.90
13426;DHT22;6785;57.918;12.530;2023-03-11T08:41:59;-0.30;99.90
13426;DHT22;6785;57.918;12.530;2023-03-11T08:44:28;-0.30;99.90
13426;DHT22;6785;57.918;12.530;2023-03-11T08:46:55;-0.20;99.90
13426;DHT22;6785;57.918;12.530;2023-03-11T08:49:22;-0.30;99.90
13426;DHT22;6785;57.918;12.530;2023-03-11T08:51:48;-0.30;99.90
13426;DHT22;6785;57.918;12.530;2023-03-11T08:54:15;-0.30;99.90
13426;DHT22;6785;57.918;12.530;2023-03-11T08:56:42;-0.30;99.90
13426;DHT22;6785;57.918;12.530;2023-03-11T08:59:09;-0.30;99.90
13426;DHT22;6785;57.918;12.530;2023-03-11T09:01:37;-0.20;99.90
13426;DHT22;6785;57.918;12.530;2023-03-11T09:04:04;-0.30;99.90
13426;DHT22;6785;57.918;12.530;2023-03-11T09:06:30;-0.20;99.90
13426;DHT22;6785;57.918;12.530;2023-03-11T09:08:57;-0.30;99.90
13426;DHT22;6785;57.918;12.530;2023-03-11T09:11:24;-0.30;99.90
13426;DHT22;6785;57.918;12.530;2023-03-11T09:13:51;-0.40;99.90
13426;DHT22;6785;57.918;12.530;2023-03-11T09:16:20;-0.20;99.90
13426;DHT22;6785;57.918;12.530;2023-03-11T09:18:48;-0.10;99.90
13426;DHT22;6785;57.918;12.530;2023-03-11T09:21:15;0.00;99.90
13426;DHT22;6785;57.918;12.530;2023-03-11T09:23:42;0.10;99.90
13426;DHT22;6785;57.918;12.530;2023-03-11T09:26:09;0.10;99.90
13426;DHT22;6785;57.918;12.530;2023-03-11T09:28:36;0.20;99.90
13426;DHT22;6785;57.918;12.530;2023-03-11T09:31:03;0.30;99.90
13426;DHT22;6785;57.918;12.530;2023-03-11T09:33:30;0.30;99.90
13426;DHT22;6785;57.918;12.530;2023-03-11T09:35:58;0.30;99.90
13426;DHT22;6785;57.918;12.530;2023-03-11T09:38:25;0.50;99.90
13426;DHT22;6785;57.918;12.530;2023-03-11T09:40:57;0.50;99.90
13426;DHT22;6785;57.918;12.530;2023-03-11T09:43:45;0.40;99.90
13426;DHT22;6785;57.918;12.530;2023-03-11T09:46:28;0.30;99.90
13426;DHT22;6785;57.918;12.530;2023-03-11T09:49:05;0.30;99.90
13426;DHT22;6785;57.918;12.530;2023-03-11T09:51:40;-0.10;99.90
13426;DHT22;6785;57.918;12.530;2023-03-11T09:54:10;-0.20;99.90
13426;DHT22;6785;57.918;12.530;2023-03-11T09:56:40;-0.40;99.90
13426;DHT22;6785;57.918;12.530;2023-03-11T09:59:14;-0.50;99.90
13426;DHT22;6785;57.918;12.530;2023-03-11T10:01:44;-0.50;99.90
13426;DHT22;6785;57.918;12.530;2023-03-11T10:04:14;-0.30;99.90
13426;DHT22;6785;57.918;12.530;2023-03-11T10:06:44;-0.10;99.90
13426;DHT22;6785;57.918;12.530;2023-03-11T10:09:28;0.10;99.90
13426;DHT22;6785;57.918;12.530;2023-03-11T10:12:05;0.10;99.90
13426;DHT22;6785;57.918;12.530;2023-03-11T10:14:47;0.40;99.90
13426;DHT22;6785;57.918;12.530;2023-03-11T10:17:33;0.30;99.90
13426;DHT22;6785;57.918;12.530;2023-03-11T10:20:05;0.30;99.90
13426;DHT22;6785;57.918;12.530;2023-03-11T10:22:40;0.00;99.90
13426;DHT22;6785;57.918;12.530;2023-03-11T10:25:14;0.00;99.90
13426;DHT22;6785;57.918;12.530;2023-03-11T10:27:46;0.10;99.90
13426;DHT22;6785;57.918;12.530;2023-03-11T10:30:21;0.10;99.90
13426;DHT22;6785;57.918;12.530;2023-03-11T10:32:54;0.10;99.90
13426;DHT22;6785;57.918;12.530;2023-03-11T10:35:23;0.30;99.90
13426;DHT22;6785;57.918;12.530;2023-03-11T10:37:58;0.50;99.90
13426;DHT22;6785;57.918;12.530;2023-03-11T10:40:31;0.60;99.90
13426;DHT22;6785;57.918;12.530;2023-03-11T10:43:02;0.80;99.90
13426;DHT22;6785;57.918;12.530;2023-03-11T10:45:36;0.90;99.90
13426;DHT22;6785;57.918;12.530;2023-03-11T10:48:08;0.70;99.90
13426;DHT22;6785;57.918;12.530;2023-03-11T10:50:35;0.70;99.90
13426;DHT22;6785;57.918;12.530;2023-03-11T10:53:09;0.70;99.90
13426;DHT22;6785;57.918;12.530;2023-03-11T10:55:45;0.80;99.90
13426;DHT22;6785;57.918;12.530;2023-03-11T10:58:14;1.00;99.90
13426;DHT22;6785;57.918;12.530;2023-03-11T11:00:40;0.90;99.90
13426;DHT22;6785;57.918;12.530;2023-03-11T11:03:16;1.00;99.90
13426;DHT22;6785;57.918;12.530;2023-03-11T11:05:56;1.10;99.90
13426;DHT22;6785;57.918;12.530;2023-03-11T11:08:25;1.10;99.90
13426;DHT22;6785;57.918;12.530;2023-03-11T11:10:53;1.30;99.90
13426;DHT22;6785;57.918;12.530;2023-03-11T11:13:22;1.40;99.90
13426;DHT22;6785;57.918;12.530;2023-03-11T11:15:58;1.50;99.90
13426;DHT22;6785;57.918;12.530;2023-03-11T11:18:28;1.50;99.90
13426;DHT22;6785;57.918;12.530;2023-03-11T11:20:59;1.40;99.90
13426;DHT22;6785;57.918;12.530;2023-03-11T11:23:36;1.40;99.90
13426;DHT22;6785;57.918;12.530;2023-03-11T11:26:05;1.60;99.90
13426;DHT22;6785;57.918;12.530;2023-03-11T11:28:33;1.80;99.90
13426;DHT22;6785;57.918;12.530;2023-03-11T11:31:02;1.80;99.90
13426;DHT22;6785;57.918;12.530;2023-03-11T11:33:30;1.90;99.90
13426;DHT22;6785;57.918;12.530;2023-03-11T11:35:59;2.00;99.90
13426;DHT22;6785;57.918;12.530;2023-03-11T11:38:30;1.90;99.90
13426;DHT22;6785;57.918;12.530;2023-03-11T11:40:58;1.90;99.90
13426;DHT22;6785;57.918;12.530;2023-03-11T11:43:43;2.00;99.90
13426;DHT22;6785;57.918;12.530;2023-03-11T11:46:18;2.00;99.90
13426;DHT22;6785;57.918;12.530;2023-03-11T11:48:52;2.20;99.90
13426;DHT22;6785;57.918;12.530;2023-03-11T11:51:24;2.30;99.90
13426;DHT22;6785;57.918;12.530;2023-03-11T11:53:57;2.40;99.90
13426;DHT22;6785;57.918;12.530;2023-03-11T11:56:26;2.20;99.90
13426;DHT22;6785;57.918;12.530;2023-03-11T11:58:53;2.00;99.90
13426;DHT22;6785;57.918;12.530;2023-03-11T12:01:29;2.10;99.90
13426;DHT22;6785;57.918;12.530;2023-03-11T12:04:33;2.10;99.90
13426;DHT22;6785;57.918;12.530;2023-03-11T12:10:04;2.30;99.90
13426;DHT22;6785;57.918;12.530;2023-03-11T12:12:41;2.40;99.90
13426;DHT22;6785;57.918;12.530;2023-03-11T12:15:15;2.40;99.90
13426;DHT22;6785;57.918;12.530;2023-03-11T12:17:45;2.50;99.90
13426;DHT22;6785;57.918;12.530;2023-03-11T12:20:14;2.40;99.90
13426;DHT22;6785;57.918;12.530;2023-03-11T12:25:48;2.30;99.90
13426;DHT22;6785;57.918;12.530;2023-03-11T12:28:22;2.40;99.90
13426;DHT22;6785;57.918;12.530;2023-03-11T12:30:51;2.30;99.90
13426;DHT22;6785;57.918;12.530;2023-03-11T12:33:26;2.40;99.90
13426;DHT22;6785;57.918;12.530;2023-03-11T12:35:56;2.60;99.90
13426;DHT22;6785;57.918;12.530;2023-03-11T12:38:27;2.80;99.90
13426;DHT22;6785;57.918;12.530;2023-03-11T12:41:06;2.90;99.90
13426;DHT22;6785;57.918;12.530;2023-03-11T12:44:04;2.80;99.90
13426;DHT22;6785;57.918;12.530;2023-03-11T12:47:23;3.10;99.90
13426;DHT22;6785;57.918;12.530;2023-03-11T12:49:51;3.20;99.90
13426;DHT22;6785;57.918;12.530;2023-03-11T12:52:29;3.00;99.90
13426;DHT22;6785;57.918;12.530;2023-03-11T12:55:28;2.90;99.90
13426;DHT22;6785;57.918;12.530;2023-03-11T13:04:10;2.90;99.90
13426;DHT22;6785;57.918;12.530;2023-03-11T13:07:03;2.80;99.90
13426;DHT22;6785;57.918;12.530;2023-03-11T13:09:32;2.80;99.90
13426;DHT22;6785;57.918;12.530;2023-03-11T13:11:59;2.90;99.90
13426;DHT22;6785;57.918;12.530;2023-03-11T13:14:31;3.00;99.90
13426;DHT22;6785;57.918;12.530;2023-03-11T13:17:23;3.20;99.90
13426;DHT22;6785;57.918;12.530;2023-03-11T13:19:53;3.10;99.90
13426;DHT22;6785;57.918;12.530;2023-03-11T13:25:37;3.10;99.90
13426;DHT22;6785;57.918;12.530;2023-03-11T13:28:26;3.00;99.90
13426;DHT22;6785;57.918;12.530;2023-03-11T13:33:49;2.80;99.90
13426;DHT22;6785;57.918;12.530;2023-03-11T13:36:35;2.70;99.90
13426;DHT22;6785;57.918;12.530;2023-03-11T13:41:58;2.20;99.90
13426;DHT22;6785;57.918;12.530;2023-03-11T13:44:29;1.80;99.90
13426;DHT22;6785;57.918;12.530;2023-03-11T13:47:01;1.50;99.90
13426;DHT22;6785;57.918;12.530;2023-03-11T13:49:36;1.50;99.90
13426;DHT22;6785;57.918;12.530;2023-03-11T13:52:07;1.40;99.90
13426;DHT22;6785;57.918;12.530;2023-03-11T13:54:38;1.40;99.90
13426;DHT22;6785;57.918;12.530;2023-03-11T13:57:21;1.20;99.90
13426;DHT22;6785;57.918;12.530;2023-03-11T13:59:51;1.20;99.90
13426;DHT22;6785;57.918;12.530;2023-03-11T14:02:22;1.30;99.90
13426;DHT22;6785;57.918;12.530;2023-03-11T14:04:52;1.30;99.90
13426;DHT22;6785;57.918;12.530;2023-03-11T14:07:25;1.20;99.90
13426;DHT22;6785;57.918;12.530;2023-03-11T14:10:18;1.10;99.90
13426;DHT22;6785;57.918;12.530;2023-03-11T14:12:45;1.00;99.90
13426;DHT22;6785;57.918;12.530;2023-03-11T14:15:14;1.00;99.90
13426;DHT22;6785;57.918;12.530;2023-03-11T14:17:43;0.90;99.90
13426;DHT22;6785;57.918;12.530;2023-03-11T14:20:12;0.90;99.90
13426;DHT22;6785;57.918;12.530;2023-03-11T14:22:43;1.00;99.90
13426;DHT22;6785;57.918;12.530;2023-03-11T14:25:15;1.30;99.90
13426;DHT22;6785;57.918;12.530;2023-03-11T14:27:51;1.50;99.90
13426;DHT22;6785;57.918;12.530;2023-03-11T14:30:21;1.80;99.90
13426;DHT22;6785;57.918;12.530;2023-03-11T14:32:58;1.90;99.90
13426;DHT22;6785;57.918;12.530;2023-03-11T14:35:25;1.90;99.90
13426;DHT22;6785;57.918;12.530;2023-03-11T14:37:52;1.70;99.90
13426;DHT22;6785;57.918;12.530;2023-03-11T14:40:22;1.60;99.90
13426;DHT22;6785;57.918;12.530;2023-03-11T14:42:50;1.70;99.90
13426;DHT22;6785;57.918;12.530;2023-03-11T14:45:20;1.80;99.90
13426;DHT22;6785;57.918;12.530;2023-03-11T14:47:51;1.90;99.90
13426;DHT22;6785;57.918;12.530;2023-03-11T14:50:21;2.10;99.90
13426;DHT22;6785;57.918;12.530;2023-03-11T14:52:50;2.20;99.90
13426;DHT22;6785;57.918;12.530;2023-03-11T14:55:20;2.20;99.90
13426;DHT22;6785;57.918;12.530;2023-03-11T14:57:50;2.20;99.90
13426;DHT22;6785;57.918;12.530;2023-03-11T15:00:22;2.20;99.90
13426;DHT22;6785;57.918;12.530;2023-03-11T15:03:01;2.10;99.90
13426;DHT22;6785;57.918;12.530;2023-03-11T15:05:38;2.10;99.90
13426;DHT22;6785;57.918;12.530;2023-03-11T15:08:08;2.20;99.90
13426;DHT22;6785;57.918;12.530;2023-03-11T15:10:35;2.10;99.90
13426;DHT22;6785;57.918;12.530;2023-03-11T15:13:08;2.00;99.90
13426;DHT22;6785;57.918;12.530;2023-03-11T15:15:36;1.90;99.90
13426;DHT22;6785;57.918;12.530;2023-03-11T15:18:14;1.80;99.90
13426;DHT22;6785;57.918;12.530;2023-03-11T15:20:46;1.70;99.90
13426;DHT22;6785;57.918;12.530;2023-03-11T15:23:26;1.60;99.90
13426;DHT22;6785;57.918;12.530;2023-03-11T15:25:52;1.50;99.90
13426;DHT22;6785;57.918;12.530;2023-03-11T15:28:21;1.50;99.90
13426;DHT22;6785;57.918;12.530;2023-03-11T15:30:50;1.60;99.90
13426;DHT22;6785;57.918;12.530;2023-03-11T15:33:20;1.60;99.90
13426;DHT22;6785;57.918;12.530;2023-03-11T15:35:49;1.70;99.90
13426;DHT22;6785;57.918;12.530;2023-03-11T15:38:22;1.70;99.90
13426;DHT22;6785;57.918;12.530;2023-03-11T15:40:52;1.70;99.90
13426;DHT22;6785;57.918;12.530;2023-03-11T15:43:22;1.80;99.90
13426;DHT22;6785;57.918;12.530;2023-03-11T15:45:50;1.90;99.90
13426;DHT22;6785;57.918;12.530;2023-03-11T15:48:20;2.00;99.90
13426;DHT22;6785;57.918;12.530;2023-03-11T15:50:49;1.80;99.90
13426;DHT22;6785;57.918;12.530;2023-03-11T15:53:17;1.60;99.90
13426;DHT22;6785;57.918;12.530;2023-03-11T15:55:45;1.60;99.90
13426;DHT22;6785;57.918;12.530;2023-03-11T15:58:14;1.50;99.90
13426;DHT22;6785;57.918;12.530;2023-03-11T16:00:45;1.30;99.90
13426;DHT22;6785;57.918;12.530;2023-03-11T16:03:12;1.20;99.90
13426;DHT22;6785;57.918;12.530;2023-03-11T16:05:39;1.10;99.90
13426;DHT22;6785;57.918;12.530;2023-03-11T16:08:08;1.00;99.90
13426;DHT22;6785;57.918;12.530;2023-03-11T16:10:35;0.80;99.90
13426;DHT22;6785;57.918;12.530;2023-03-11T16:13:03;0.70;99.90
13426;DHT22;6785;57.918;12.530;2023-03-11T16:15:32;0.70;99.90